sensor_id;sensor_type;location;lat;lon;timestamp;P1;durP1;ratioP1;P2;durP2;ratioP2
70313;SDS011;57725;47.526;18.986;2022-12-07T00:01:06;6.60;;;4.82;;
70313;SDS011;57725;47.526;18.986;2022-12-07T00:03:33;7.88;;;4.97;;
70313;SDS011;57725;47.526;18.986;2022-12-07T00:06:00;7.57;;;5.55;;
70313;SDS011;57725;47.526;18.986;2022-12-07T00:08:26;6.25;;;4.95;;
70313;SDS011;57725;47.526;18.986;2022-12-07T00:10:54;6.57;;;4.97;;
70313;SDS011;57725;47.526;18.986;2022-12-07T00:13:22;7.38;;;5.57;;
70313;SDS011;57725;47.526;18.986;2022-12-07T00:15:48;6.10;;;4.72;;
70313;SDS011;57725;47.526;18.986;2022-12-07T00:18:13;6.63;;;5.35;;
70313;SDS011;57725;47.526;18.986;2022-12-07T00:20:38;7.03;;;4.85;;
70313;SDS011;57725;47.526;18.986;2022-12-07T00:23:04;6.43;;;4.82;;
70313;SDS011;57725;47.526;18.986;2022-12-07T00:25:29;8.32;;;5.45;;
70313;SDS011;57725;47.526;18.986;2022-12-07T00:27:57;7.57;;;5.25;;
70313;SDS011;57725;47.526;18.986;2022-12-07T00:30:23;6.47;;;4.60;;
70313;SDS011;57725;47.526;18.986;2022-12-07T00:32:48;6.78;;;5.40;;
70313;SDS011;57725;47.526;18.986;2022-12-07T00:35:14;8.55;;;5.38;;
70313;SDS011;57725;47.526;18.986;2022-12-07T00:37:39;7.55;;;5.20;;
70313;SDS011;57725;47.526;18.986;2022-12-07T00:40:05;7.00;;;5.40;;
70313;SDS011;57725;47.526;18.986;2022-12-07T00:42:31;8.10;;;5.20;;
70313;SDS011;57725;47.526;18.986;2022-12-07T00:44:56;6.75;;;4.90;;
70313;SDS011;57725;47.526;18.986;2022-12-07T00:47:22;8.65;;;5.15;;
70313;SDS011;57725;47.526;18.986;2022-12-07T00:49:50;7.35;;;5.35;;
70313;SDS011;57725;47.526;18.986;2022-12-07T00:52:15;7.25;;;5.15;;
70313;SDS011;57725;47.526;18.986;2022-12-07T00:54:40;7.32;;;5.00;;
70313;SDS011;57725;47.526;18.986;2022-12-07T00:57:06;7.05;;;5.05;;
70313;SDS011;57725;47.526;18.986;2022-12-07T00:59:31;8.93;;;5.90;;
70313;SDS011;57725;47.526;18.986;2022-12-07T01:01:57;6.95;;;5.07;;
70313;SDS011;57725;47.526;18.986;2022-12-07T01:04:22;6.75;;;5.25;;
70313;SDS011;57725;47.526;18.986;2022-12-07T01:06:48;7.38;;;5.28;;
70313;SDS011;57725;47.526;18.986;2022-12-07T01:09:13;7.13;;;4.60;;
70313;SDS011;57725;47.526;18.986;2022-12-07T01:11:39;7.20;;;5.07;;
70313;SDS011;57725;47.526;18.986;2022-12-07T01:14:04;5.57;;;4.32;;
70313;SDS011;57725;47.526;18.986;2022-12-07T01:16:30;7.05;;;5.25;;
70313;SDS011;57725;47.526;18.986;2022-12-07T01:18:57;7.97;;;5.30;;
70313;SDS011;57725;47.526;18.986;2022-12-07T01:21:25;8.07;;;5.15;;
70313;SDS011;57725;47.526;18.986;2022-12-07T01:23:59;6.70;;;5.15;;
70313;SDS011;57725;47.526;18.986;2022-12-07T01:26:25;5.85;;;4.95;;
70313;SDS011;57725;47.526;18.986;2022-12-07T01:28:51;6.40;;;4.78;;
70313;SDS011;57725;47.526;18.986;2022-12-07T01:31:20;7.53;;;5.28;;
70313;SDS011;57725;47.526;18.986;2022-12-07T01:33:48;6.72;;;5.50;;
70313;SDS011;57725;47.526;18.986;2022-12-07T01:36:29;8.18;;;5.57;;
70313;SDS011;57725;47.526;18.986;2022-12-07T01:38:57;7.13;;;5.28;;
70313;SDS011;57725;47.526;18.986;2022-12-07T01:41:30;6.30;;;4.45;;
70313;SDS011;57725;47.526;18.986;2022-12-07T01:44:12;6.65;;;4.78;;
70313;SDS011;57725;47.526;18.986;2022-12-07T01:46:42;5.88;;;4.40;;
70313;SDS011;57725;47.526;18.986;2022-12-07T01:49:10;6.43;;;4.97;;
70313;SDS011;57725;47.526;18.986;2022-12-07T01:51:52;6.35;;;4.30;;
70313;SDS011;57725;47.526;18.986;2022-12-07T01:54:34;7.10;;;4.85;;
70313;SDS011;57725;47.526;18.986;2022-12-07T01:57:03;6.72;;;4.85;;
70313;SDS011;57725;47.526;18.986;2022-12-07T01:59:31;6.90;;;4.95;;
70313;SDS011;57725;47.526;18.986;2022-12-07T02:01:57;5.72;;;4.25;;
70313;SDS011;57725;47.526;18.986;2022-12-07T02:04:22;6.50;;;4.70;;
70313;SDS011;57725;47.526;18.986;2022-12-07T02:06:48;7.28;;;4.80;;
70313;SDS011;57725;47.526;18.986;2022-12-07T02:09:15;6.45;;;4.75;;
70313;SDS011;57725;47.526;18.986;2022-12-07T02:11:40;6.60;;;4.63;;
70313;SDS011;57725;47.526;18.986;2022-12-07T02:14:06;6.95;;;4.75;;
70313;SDS011;57725;47.526;18.986;2022-12-07T02:16:34;7.22;;;4.80;;
70313;SDS011;57725;47.526;18.986;2022-12-07T02:21:59;5.40;;;3.88;;
70313;SDS011;57725;47.526;18.986;2022-12-07T02:24:54;5.95;;;4.10;;
70313;SDS011;57725;47.526;18.986;2022-12-07T02:27:38;6.07;;;4.35;;
70313;SDS011;57725;47.526;18.986;2022-12-07T02:30:12;6.32;;;4.57;;
70313;SDS011;57725;47.526;18.986;2022-12-07T02:38:14;4.63;;;3.47;;
70313;SDS011;57725;47.526;18.986;2022-12-07T02:43:34;5.40;;;4.43;;
70313;SDS011;57725;47.526;18.986;2022-12-07T02:46:11;6.40;;;4.30;;
70313;SDS011;57725;47.526;18.986;2022-12-07T02:51:08;5.55;;;3.55;;
70313;SDS011;57725;47.526;18.986;2022-12-07T02:53:37;4.38;;;3.53;;
70313;SDS011;57725;47.526;18.986;2022-12-07T02:56:07;5.82;;;4.32;;
70313;SDS011;57725;47.526;18.986;2022-12-07T03:03:39;5.25;;;3.92;;
70313;SDS011;57725;47.526;18.986;2022-12-07T03:06:16;4.50;;;3.42;;
70313;SDS011;57725;47.526;18.986;2022-12-07T03:08:51;6.25;;;4.63;;
70313;SDS011;57725;47.526;18.986;2022-12-07T03:11:30;4.07;;;3.45;;
70313;SDS011;57725;47.526;18.986;2022-12-07T03:16:55;5.10;;;3.70;;
70313;SDS011;57725;47.526;18.986;2022-12-07T03:19:26;7.50;;;3.67;;
70313;SDS011;57725;47.526;18.986;2022-12-07T03:21:57;5.32;;;3.78;;
70313;SDS011;57725;47.526;18.986;2022-12-07T03:25:00;5.03;;;3.83;;
70313;SDS011;57725;47.526;18.986;2022-12-07T03:27:32;5.03;;;3.58;;
70313;SDS011;57725;47.526;18.986;2022-12-07T03:30:03;4.90;;;3.22;;
70313;SDS011;57725;47.526;18.986;2022-12-07T03:35:11;6.63;;;4.30;;
70313;SDS011;57725;47.526;18.986;2022-12-07T03:43:05;5.05;;;3.95;;
70313;SDS011;57725;47.526;18.986;2022-12-07T03:45:36;4.03;;;3.47;;
70313;SDS011;57725;47.526;18.986;2022-12-07T03:50:53;4.70;;;3.33;;
70313;SDS011;57725;47.526;18.986;2022-12-07T03:53:44;4.95;;;3.95;;
70313;SDS011;57725;47.526;18.986;2022-12-07T03:56:16;4.55;;;3.45;;
70313;SDS011;57725;47.526;18.986;2022-12-07T03:58:43;4.28;;;3.10;;
70313;SDS011;57725;47.526;18.986;2022-12-07T04:01:09;5.75;;;3.22;;
70313;SDS011;57725;47.526;18.986;2022-12-07T04:03:35;4.93;;;3.53;;
70313;SDS011;57725;47.526;18.986;2022-12-07T04:06:00;5.03;;;3.67;;
70313;SDS011;57725;47.526;18.986;2022-12-07T04:08:26;5.00;;;3.63;;
70313;SDS011;57725;47.526;18.986;2022-12-07T04:10:54;4.95;;;3.45;;
70313;SDS011;57725;47.526;18.986;2022-12-07T04:13:19;5.15;;;3.67;;
70313;SDS011;57725;47.526;18.986;2022-12-07T04:15:44;3.95;;;2.90;;
70313;SDS011;57725;47.526;18.986;2022-12-07T04:18:10;4.80;;;3.90;;
70313;SDS011;57725;47.526;18.986;2022-12-07T04:20:35;5.47;;;3.65;;
70313;SDS011;57725;47.526;18.986;2022-12-07T04:23:00;5.90;;;3.42;;
70313;SDS011;57725;47.526;18.986;2022-12-07T04:25:26;4.13;;;3.40;;
70313;SDS011;57725;47.526;18.986;2022-12-07T04:27:51;4.47;;;3.30;;
70313;SDS011;57725;47.526;18.986;2022-12-07T04:30:23;5.68;;;3.80;;
70313;SDS011;57725;47.526;18.986;2022-12-07T04:32:48;4.80;;;3.60;;
70313;SDS011;57725;47.526;18.986;2022-12-07T04:35:13;4.43;;;3.13;;
70313;SDS011;57725;47.526;18.986;2022-12-07T04:37:39;4.82;;;3.78;;
70313;SDS011;57725;47.526;18.986;2022-12-07T04:40:05;3.97;;;3.53;;
70313;SDS011;57725;47.526;18.986;2022-12-07T04:42:36;4.53;;;3.08;;
70313;SDS011;57725;47.526;18.986;2022-12-07T04:45:02;4.68;;;3.22;;
70313;SDS011;57725;47.526;18.986;2022-12-07T04:47:27;5.07;;;3.88;;
70313;SDS011;57725;47.526;18.986;2022-12-07T04:49:52;4.88;;;3.75;;
70313;SDS011;57725;47.526;18.986;2022-12-07T04:52:18;4.65;;;3.40;;
70313;SDS011;57725;47.526;18.986;2022-12-07T04:54:43;5.13;;;3.30;;
70313;SDS011;57725;47.526;18.986;2022-12-07T04:57:08;5.25;;;3.53;;
70313;SDS011;57725;47.526;18.986;2022-12-07T04:59:34;4.80;;;3.55;;
70313;SDS011;57725;47.526;18.986;2022-12-07T05:01:59;4.03;;;3.10;;
70313;SDS011;57725;47.526;18.986;2022-12-07T05:04:25;5.28;;;3.53;;
70313;SDS011;57725;47.526;18.986;2022-12-07T05:06:50;3.67;;;3.00;;
70313;SDS011;57725;47.526;18.986;2022-12-07T05:09:15;4.63;;;3.50;;
70313;SDS011;57725;47.526;18.986;2022-12-07T05:11:41;4.53;;;3.33;;
70313;SDS011;57725;47.526;18.986;2022-12-07T05:16:37;5.18;;;3.55;;
70313;SDS011;57725;47.526;18.986;2022-12-07T05:19:03;5.47;;;3.75;;
70313;SDS011;57725;47.526;18.986;2022-12-07T05:21:29;5.40;;;3.40;;
70313;SDS011;57725;47.526;18.986;2022-12-07T05:23:54;5.75;;;3.55;;
70313;SDS011;57725;47.526;18.986;2022-12-07T05:26:25;3.97;;;2.92;;
70313;SDS011;57725;47.526;18.986;2022-12-07T05:28:51;4.20;;;3.15;;
70313;SDS011;57725;47.526;18.986;2022-12-07T05:31:17;4.38;;;3.10;;
70313;SDS011;57725;47.526;18.986;2022-12-07T05:33:43;4.00;;;3.10;;
70313;SDS011;57725;47.526;18.986;2022-12-07T05:36:08;4.90;;;3.35;;
70313;SDS011;57725;47.526;18.986;2022-12-07T05:38:34;4.40;;;3.25;;
70313;SDS011;57725;47.526;18.986;2022-12-07T05:41:03;4.45;;;3.25;;
70313;SDS011;57725;47.526;18.986;2022-12-07T05:43:30;4.63;;;3.63;;
70313;SDS011;57725;47.526;18.986;2022-12-07T05:45:59;4.90;;;3.30;;
70313;SDS011;57725;47.526;18.986;2022-12-07T05:48:25;4.18;;;3.35;;
70313;SDS011;57725;47.526;18.986;2022-12-07T05:50:50;5.18;;;3.33;;
70313;SDS011;57725;47.526;18.986;2022-12-07T05:53:16;3.90;;;3.30;;
70313;SDS011;57725;47.526;18.986;2022-12-07T05:55:42;3.80;;;2.95;;
70313;SDS011;57725;47.526;18.986;2022-12-07T05:58:08;4.93;;;3.35;;
70313;SDS011;57725;47.526;18.986;2022-12-07T06:00:55;3.53;;;2.83;;
70313;SDS011;57725;47.526;18.986;2022-12-07T06:03:21;4.43;;;2.80;;
70313;SDS011;57725;47.526;18.986;2022-12-07T06:05:46;4.40;;;3.20;;
70313;SDS011;57725;47.526;18.986;2022-12-07T06:08:14;5.30;;;3.70;;
70313;SDS011;57725;47.526;18.986;2022-12-07T06:10:40;4.75;;;3.03;;
70313;SDS011;57725;47.526;18.986;2022-12-07T06:13:06;4.88;;;3.17;;
70313;SDS011;57725;47.526;18.986;2022-12-07T06:15:32;4.45;;;3.63;;
70313;SDS011;57725;47.526;18.986;2022-12-07T06:17:57;3.85;;;2.90;;
70313;SDS011;57725;47.526;18.986;2022-12-07T06:20:25;4.25;;;2.78;;
70313;SDS011;57725;47.526;18.986;2022-12-07T06:22:50;4.47;;;3.50;;
70313;SDS011;57725;47.526;18.986;2022-12-07T06:25:16;5.65;;;3.70;;
70313;SDS011;57725;47.526;18.986;2022-12-07T06:27:41;5.32;;;3.38;;
70313;SDS011;57725;47.526;18.986;2022-12-07T06:30:09;3.95;;;3.03;;
70313;SDS011;57725;47.526;18.986;2022-12-07T06:32:35;5.15;;;3.20;;
70313;SDS011;57725;47.526;18.986;2022-12-07T06:35:01;5.15;;;3.42;;
70313;SDS011;57725;47.526;18.986;2022-12-07T06:37:27;4.70;;;3.42;;
70313;SDS011;57725;47.526;18.986;2022-12-07T06:39:52;4.88;;;2.92;;
70313;SDS011;57725;47.526;18.986;2022-12-07T06:42:17;4.60;;;3.03;;
70313;SDS011;57725;47.526;18.986;2022-12-07T06:44:43;4.07;;;3.17;;
70313;SDS011;57725;47.526;18.986;2022-12-07T06:47:08;4.55;;;3.45;;
70313;SDS011;57725;47.526;18.986;2022-12-07T06:49:34;3.95;;;3.08;;
70313;SDS011;57725;47.526;18.986;2022-12-07T06:51:59;4.45;;;3.08;;
70313;SDS011;57725;47.526;18.986;2022-12-07T06:54:25;5.50;;;3.60;;
70313;SDS011;57725;47.526;18.986;2022-12-07T06:56:50;5.38;;;3.65;;
70313;SDS011;57725;47.526;18.986;2022-12-07T06:59:18;4.20;;;3.30;;
70313;SDS011;57725;47.526;18.986;2022-12-07T07:01:43;5.22;;;3.42;;
70313;SDS011;57725;47.526;18.986;2022-12-07T07:04:08;4.82;;;3.38;;
70313;SDS011;57725;47.526;18.986;2022-12-07T07:06:34;4.80;;;3.17;;
70313;SDS011;57725;47.526;18.986;2022-12-07T07:08:59;4.43;;;3.60;;
70313;SDS011;57725;47.526;18.986;2022-12-07T07:11:25;4.53;;;3.60;;
70313;SDS011;57725;47.526;18.986;2022-12-07T07:13:50;3.83;;;3.42;;
70313;SDS011;57725;47.526;18.986;2022-12-07T07:16:15;4.53;;;3.15;;
70313;SDS011;57725;47.526;18.986;2022-12-07T07:18:43;4.18;;;3.40;;
70313;SDS011;57725;47.526;18.986;2022-12-07T07:21:08;5.10;;;3.63;;
70313;SDS011;57725;47.526;18.986;2022-12-07T07:23:34;4.15;;;3.50;;
70313;SDS011;57725;47.526;18.986;2022-12-07T07:26:02;4.07;;;3.25;;
70313;SDS011;57725;47.526;18.986;2022-12-07T07:28:27;12.02;;;7.60;;
70313;SDS011;57725;47.526;18.986;2022-12-07T07:30:52;19.67;;;9.10;;
70313;SDS011;57725;47.526;18.986;2022-12-07T07:33:18;17.60;;;9.77;;
70313;SDS011;57725;47.526;18.986;2022-12-07T07:35:43;16.80;;;9.95;;
70313;SDS011;57725;47.526;18.986;2022-12-07T07:38:08;16.88;;;9.45;;
70313;SDS011;57725;47.526;18.986;2022-12-07T07:40:36;14.18;;;9.18;;
70313;SDS011;57725;47.526;18.986;2022-12-07T07:43:04;13.63;;;9.00;;
70313;SDS011;57725;47.526;18.986;2022-12-07T07:45:29;15.10;;;9.25;;
70313;SDS011;57725;47.526;18.986;2022-12-07T07:47:55;13.23;;;8.75;;
70313;SDS011;57725;47.526;18.986;2022-12-07T07:50:20;14.10;;;8.60;;
70313;SDS011;57725;47.526;18.986;2022-12-07T07:52:46;12.50;;;9.05;;
70313;SDS011;57725;47.526;18.986;2022-12-07T07:55:12;14.65;;;9.27;;
70313;SDS011;57725;47.526;18.986;2022-12-07T07:57:38;11.32;;;8.93;;
70313;SDS011;57725;47.526;18.986;2022-12-07T08:00:05;13.73;;;8.65;;
70313;SDS011;57725;47.526;18.986;2022-12-07T08:02:36;13.02;;;8.25;;
70313;SDS011;57725;47.526;18.986;2022-12-07T08:05:01;12.15;;;8.40;;
70313;SDS011;57725;47.526;18.986;2022-12-07T08:07:27;11.20;;;8.63;;
70313;SDS011;57725;47.526;18.986;2022-12-07T08:09:52;11.93;;;8.07;;
70313;SDS011;57725;47.526;18.986;2022-12-07T08:12:18;11.63;;;8.32;;
70313;SDS011;57725;47.526;18.986;2022-12-07T08:14:43;12.98;;;7.75;;
70313;SDS011;57725;47.526;18.986;2022-12-07T08:17:08;10.80;;;7.43;;
70313;SDS011;57725;47.526;18.986;2022-12-07T08:19:34;13.23;;;8.43;;
70313;SDS011;57725;47.526;18.986;2022-12-07T08:21:59;11.07;;;7.95;;
70313;SDS011;57725;47.526;18.986;2022-12-07T08:24:25;10.60;;;7.45;;
70313;SDS011;57725;47.526;18.986;2022-12-07T08:26:50;10.75;;;8.35;;
70313;SDS011;57725;47.526;18.986;2022-12-07T08:29:16;10.40;;;7.80;;
70313;SDS011;57725;47.526;18.986;2022-12-07T08:31:48;10.00;;;7.25;;
70313;SDS011;57725;47.526;18.986;2022-12-07T08:34:13;10.48;;;7.43;;
70313;SDS011;57725;47.526;18.986;2022-12-07T08:36:39;13.25;;;8.00;;
70313;SDS011;57725;47.526;18.986;2022-12-07T08:39:04;12.00;;;8.40;;
70313;SDS011;57725;47.526;18.986;2022-12-07T08:41:31;11.05;;;7.57;;
70313;SDS011;57725;47.526;18.986;2022-12-07T08:43:57;10.00;;;7.20;;
70313;SDS011;57725;47.526;18.986;2022-12-07T08:51:38;8.45;;;5.65;;
70313;SDS011;57725;47.526;18.986;2022-12-07T08:54:06;9.65;;;6.90;;
70313;SDS011;57725;47.526;18.986;2022-12-07T08:56:35;10.80;;;6.95;;
70313;SDS011;57725;47.526;18.986;2022-12-07T08:59:01;9.00;;;6.97;;
70313;SDS011;57725;47.526;18.986;2022-12-07T09:01:27;9.38;;;6.85;;
70313;SDS011;57725;47.526;18.986;2022-12-07T09:03:53;9.65;;;7.38;;
70313;SDS011;57725;47.526;18.986;2022-12-07T09:06:19;9.55;;;7.18;;
70313;SDS011;57725;47.526;18.986;2022-12-07T09:08:46;9.25;;;7.28;;
70313;SDS011;57725;47.526;18.986;2022-12-07T09:11:15;8.20;;;6.90;;
70313;SDS011;57725;47.526;18.986;2022-12-07T09:13:40;10.35;;;7.68;;
70313;SDS011;57725;47.526;18.986;2022-12-07T09:16:06;9.32;;;6.75;;
70313;SDS011;57725;47.526;18.986;2022-12-07T09:18:31;9.43;;;7.00;;
70313;SDS011;57725;47.526;18.986;2022-12-07T09:20:57;8.80;;;6.70;;
70313;SDS011;57725;47.526;18.986;2022-12-07T09:23:22;8.75;;;6.30;;
70313;SDS011;57725;47.526;18.986;2022-12-07T09:25:48;8.48;;;6.38;;
70313;SDS011;57725;47.526;18.986;2022-12-07T09:28:16;8.60;;;6.22;;
70313;SDS011;57725;47.526;18.986;2022-12-07T09:30:47;9.77;;;6.82;;
70313;SDS011;57725;47.526;18.986;2022-12-07T09:33:14;9.10;;;6.63;;
70313;SDS011;57725;47.526;18.986;2022-12-07T09:35:49;8.98;;;6.55;;
70313;SDS011;57725;47.526;18.986;2022-12-07T09:38:16;9.38;;;6.85;;
70313;SDS011;57725;47.526;18.986;2022-12-07T09:40:42;8.30;;;6.00;;
70313;SDS011;57725;47.526;18.986;2022-12-07T09:43:21;9.13;;;6.72;;
70313;SDS011;57725;47.526;18.986;2022-12-07T09:45:50;9.60;;;6.72;;
70313;SDS011;57725;47.526;18.986;2022-12-07T09:48:19;9.32;;;6.28;;
70313;SDS011;57725;47.526;18.986;2022-12-07T09:50:47;8.65;;;6.40;;
70313;SDS011;57725;47.526;18.986;2022-12-07T09:53:20;9.27;;;6.53;;
70313;SDS011;57725;47.526;18.986;2022-12-07T09:55:50;7.57;;;6.10;;
70313;SDS011;57725;47.526;18.986;2022-12-07T09:58:25;8.65;;;6.55;;
70313;SDS011;57725;47.526;18.986;2022-12-07T10:01:27;8.02;;;6.03;;
70313;SDS011;57725;47.526;18.986;2022-12-07T10:03:53;8.05;;;5.97;;
70313;SDS011;57725;47.526;18.986;2022-12-07T10:06:24;8.23;;;5.63;;
70313;SDS011;57725;47.526;18.986;2022-12-07T10:08:49;7.13;;;5.50;;
70313;SDS011;57725;47.526;18.986;2022-12-07T10:11:15;10.73;;;6.47;;
70313;SDS011;57725;47.526;18.986;2022-12-07T10:13:46;7.80;;;5.65;;
70313;SDS011;57725;47.526;18.986;2022-12-07T10:18:54;7.65;;;5.63;;
70313;SDS011;57725;47.526;18.986;2022-12-07T10:21:21;7.55;;;5.50;;
70313;SDS011;57725;47.526;18.986;2022-12-07T10:26:34;7.75;;;5.38;;
70313;SDS011;57725;47.526;18.986;2022-12-07T10:29:12;8.27;;;5.38;;
70313;SDS011;57725;47.526;18.986;2022-12-07T10:31:39;7.25;;;5.03;;
70313;SDS011;57725;47.526;18.986;2022-12-07T10:34:12;7.35;;;5.72;;
70313;SDS011;57725;47.526;18.986;2022-12-07T10:39:20;6.95;;;4.82;;
70313;SDS011;57725;47.526;18.986;2022-12-07T10:41:57;8.18;;;5.53;;
70313;SDS011;57725;47.526;18.986;2022-12-07T10:44:28;8.05;;;5.45;;
70313;SDS011;57725;47.526;18.986;2022-12-07T10:47:11;7.32;;;5.35;;
70313;SDS011;57725;47.526;18.986;2022-12-07T10:52:24;6.70;;;4.80;;
70313;SDS011;57725;47.526;18.986;2022-12-07T11:06:06;7.20;;;5.10;;
70313;SDS011;57725;47.526;18.986;2022-12-07T11:08:47;5.47;;;4.35;;
70313;SDS011;57725;47.526;18.986;2022-12-07T11:11:33;6.57;;;4.85;;
70313;SDS011;57725;47.526;18.986;2022-12-07T11:14:11;7.55;;;5.20;;
70313;SDS011;57725;47.526;18.986;2022-12-07T11:23:10;11.18;;;5.10;;
70313;SDS011;57725;47.526;18.986;2022-12-07T11:33:57;7.55;;;4.93;;
70313;SDS011;57725;47.526;18.986;2022-12-07T11:36:41;5.45;;;4.43;;
70313;SDS011;57725;47.526;18.986;2022-12-07T11:42:18;6.15;;;4.28;;
70313;SDS011;57725;47.526;18.986;2022-12-07T11:50:31;7.35;;;5.13;;
70313;SDS011;57725;47.526;18.986;2022-12-07T12:06:40;6.72;;;4.57;;
70313;SDS011;57725;47.526;18.986;2022-12-07T12:09:22;6.28;;;4.65;;
70313;SDS011;57725;47.526;18.986;2022-12-07T12:22:51;6.20;;;4.00;;
70313;SDS011;57725;47.526;18.986;2022-12-07T12:25:50;6.53;;;4.35;;
70313;SDS011;57725;47.526;18.986;2022-12-07T12:28:30;6.47;;;4.40;;
70313;SDS011;57725;47.526;18.986;2022-12-07T12:33:49;7.22;;;4.90;;
70313;SDS011;57725;47.526;18.986;2022-12-07T12:46:54;7.97;;;4.68;;
70313;SDS011;57725;47.526;18.986;2022-12-07T13:15:37;6.22;;;4.47;;
70313;SDS011;57725;47.526;18.986;2022-12-07T13:23:19;5.97;;;4.25;;
70313;SDS011;57725;47.526;18.986;2022-12-07T13:25:54;5.82;;;4.18;;
70313;SDS011;57725;47.526;18.986;2022-12-07T13:28:26;4.47;;;3.42;;
70313;SDS011;57725;47.526;18.986;2022-12-07T13:33:42;4.82;;;3.50;;
70313;SDS011;57725;47.526;18.986;2022-12-07T13:36:16;5.25;;;4.22;;
70313;SDS011;57725;47.526;18.986;2022-12-07T13:38:52;5.45;;;3.50;;
70313;SDS011;57725;47.526;18.986;2022-12-07T13:41:21;5.60;;;3.90;;
70313;SDS011;57725;47.526;18.986;2022-12-07T13:43:50;5.47;;;3.95;;
70313;SDS011;57725;47.526;18.986;2022-12-07T13:46:26;4.72;;;3.58;;
70313;SDS011;57725;47.526;18.986;2022-12-07T13:49:21;5.03;;;3.63;;
70313;SDS011;57725;47.526;18.986;2022-12-07T13:51:51;7.18;;;4.55;;
70313;SDS011;57725;47.526;18.986;2022-12-07T13:54:18;5.35;;;3.83;;
70313;SDS011;57725;47.526;18.986;2022-12-07T13:56:47;4.80;;;3.65;;
70313;SDS011;57725;47.526;18.986;2022-12-07T13:59:16;5.85;;;4.30;;
70313;SDS011;57725;47.526;18.986;2022-12-07T14:01:44;6.18;;;4.32;;
70313;SDS011;57725;47.526;18.986;2022-12-07T14:04:16;6.07;;;4.35;;
70313;SDS011;57725;47.526;18.986;2022-12-07T14:06:52;5.35;;;4.03;;
70313;SDS011;57725;47.526;18.986;2022-12-07T14:09:21;5.63;;;4.07;;
70313;SDS011;57725;47.526;18.986;2022-12-07T14:11:49;5.50;;;3.85;;
70313;SDS011;57725;47.526;18.986;2022-12-07T14:14:18;5.97;;;4.22;;
70313;SDS011;57725;47.526;18.986;2022-12-07T14:16:56;6.07;;;4.32;;
70313;SDS011;57725;47.526;18.986;2022-12-07T14:22:08;5.18;;;3.95;;
70313;SDS011;57725;47.526;18.986;2022-12-07T14:24:46;6.82;;;4.60;;
70313;SDS011;57725;47.526;18.986;2022-12-07T14:27:22;5.40;;;4.25;;
70313;SDS011;57725;47.526;18.986;2022-12-07T14:29:50;6.25;;;4.13;;
70313;SDS011;57725;47.526;18.986;2022-12-07T14:32:20;6.40;;;4.35;;
70313;SDS011;57725;47.526;18.986;2022-12-07T14:35:08;5.97;;;3.97;;
70313;SDS011;57725;47.526;18.986;2022-12-07T14:37:36;5.22;;;3.78;;
70313;SDS011;57725;47.526;18.986;2022-12-07T14:40:04;5.78;;;3.95;;
70313;SDS011;57725;47.526;18.986;2022-12-07T14:42:31;5.60;;;3.88;;
70313;SDS011;57725;47.526;18.986;2022-12-07T14:45:00;6.18;;;4.35;;
70313;SDS011;57725;47.526;18.986;2022-12-07T14:47:28;5.50;;;3.97;;
70313;SDS011;57725;47.526;18.986;2022-12-07T14:49:53;6.40;;;4.15;;
70313;SDS011;57725;47.526;18.986;2022-12-07T14:52:23;5.07;;;4.15;;
70313;SDS011;57725;47.526;18.986;2022-12-07T14:54:52;7.27;;;4.20;;
70313;SDS011;57725;47.526;18.986;2022-12-07T14:57:17;5.90;;;4.28;;
70313;SDS011;57725;47.526;18.986;2022-12-07T14:59:43;6.93;;;4.55;;
70313;SDS011;57725;47.526;18.986;2022-12-07T15:02:14;6.03;;;4.10;;
70313;SDS011;57725;47.526;18.986;2022-12-07T15:04:40;6.22;;;4.28;;
70313;SDS011;57725;47.526;18.986;2022-12-07T15:07:06;6.38;;;4.43;;
70313;SDS011;57725;47.526;18.986;2022-12-07T15:09:44;6.68;;;4.55;;
70313;SDS011;57725;47.526;18.986;2022-12-07T15:12:09;6.53;;;4.72;;
70313;SDS011;57725;47.526;18.986;2022-12-07T15:14:37;7.03;;;4.95;;
70313;SDS011;57725;47.526;18.986;2022-12-07T15:17:02;6.55;;;4.50;;
70313;SDS011;57725;47.526;18.986;2022-12-07T15:19:28;8.75;;;5.68;;
70313;SDS011;57725;47.526;18.986;2022-12-07T15:21:53;6.47;;;5.13;;
70313;SDS011;57725;47.526;18.986;2022-12-07T15:24:19;6.72;;;4.60;;
70313;SDS011;57725;47.526;18.986;2022-12-07T15:26:45;7.20;;;4.88;;
70313;SDS011;57725;47.526;18.986;2022-12-07T15:29:11;7.45;;;5.00;;
70313;SDS011;57725;47.526;18.986;2022-12-07T15:31:36;6.53;;;4.53;;
70313;SDS011;57725;47.526;18.986;2022-12-07T15:34:02;6.68;;;5.05;;
70313;SDS011;57725;47.526;18.986;2022-12-07T15:36:30;6.55;;;4.35;;
70313;SDS011;57725;47.526;18.986;2022-12-07T15:38:56;8.85;;;5.07;;
70313;SDS011;57725;47.526;18.986;2022-12-07T15:41:22;8.25;;;5.18;;
70313;SDS011;57725;47.526;18.986;2022-12-07T15:43:48;7.93;;;4.82;;
70313;SDS011;57725;47.526;18.986;2022-12-07T15:48:58;8.38;;;5.20;;
70313;SDS011;57725;47.526;18.986;2022-12-07T15:51:24;6.65;;;4.70;;
70313;SDS011;57725;47.526;18.986;2022-12-07T15:53:50;7.50;;;5.20;;
70313;SDS011;57725;47.526;18.986;2022-12-07T15:56:15;8.18;;;5.55;;
70313;SDS011;57725;47.526;18.986;2022-12-07T15:58:41;8.23;;;5.57;;
70313;SDS011;57725;47.526;18.986;2022-12-07T16:01:10;9.45;;;5.28;;
70313;SDS011;57725;47.526;18.986;2022-12-07T16:03:41;6.75;;;4.93;;
70313;SDS011;57725;47.526;18.986;2022-12-07T16:06:07;7.07;;;4.70;;
70313;SDS011;57725;47.526;18.986;2022-12-07T16:08:33;7.40;;;5.47;;
70313;SDS011;57725;47.526;18.986;2022-12-07T16:10:59;8.25;;;5.40;;
70313;SDS011;57725;47.526;18.986;2022-12-07T16:13:27;8.00;;;5.75;;
70313;SDS011;57725;47.526;18.986;2022-12-07T16:15:52;7.63;;;5.32;;
70313;SDS011;57725;47.526;18.986;2022-12-07T16:18:20;8.77;;;5.65;;
70313;SDS011;57725;47.526;18.986;2022-12-07T16:20:48;7.55;;;5.22;;
70313;SDS011;57725;47.526;18.986;2022-12-07T16:23:14;9.45;;;5.30;;
70313;SDS011;57725;47.526;18.986;2022-12-07T16:25:39;7.47;;;5.45;;
70313;SDS011;57725;47.526;18.986;2022-12-07T16:28:05;8.57;;;5.43;;
70313;SDS011;57725;47.526;18.986;2022-12-07T16:30:31;8.55;;;5.72;;
70313;SDS011;57725;47.526;18.986;2022-12-07T16:32:56;8.02;;;5.78;;
70313;SDS011;57725;47.526;18.986;2022-12-07T16:35:22;7.72;;;5.28;;
70313;SDS011;57725;47.526;18.986;2022-12-07T16:37:47;7.22;;;5.63;;
70313;SDS011;57725;47.526;18.986;2022-12-07T16:40:15;6.97;;;5.00;;
70313;SDS011;57725;47.526;18.986;2022-12-07T16:42:40;7.97;;;5.68;;
70313;SDS011;57725;47.526;18.986;2022-12-07T16:45:06;7.45;;;5.25;;
70313;SDS011;57725;47.526;18.986;2022-12-07T16:47:31;7.80;;;5.32;;
70313;SDS011;57725;47.526;18.986;2022-12-07T16:49:57;6.95;;;5.15;;
70313;SDS011;57725;47.526;18.986;2022-12-07T16:52:22;8.05;;;5.55;;
70313;SDS011;57725;47.526;18.986;2022-12-07T16:54:48;8.52;;;5.68;;
70313;SDS011;57725;47.526;18.986;2022-12-07T16:57:14;8.25;;;5.78;;
70313;SDS011;57725;47.526;18.986;2022-12-07T16:59:40;6.57;;;5.18;;
70313;SDS011;57725;47.526;18.986;2022-12-07T17:02:05;8.43;;;5.28;;
70313;SDS011;57725;47.526;18.986;2022-12-07T17:04:32;7.93;;;5.57;;
70313;SDS011;57725;47.526;18.986;2022-12-07T17:06:58;7.35;;;5.03;;
70313;SDS011;57725;47.526;18.986;2022-12-07T17:09:24;7.00;;;5.15;;
70313;SDS011;57725;47.526;18.986;2022-12-07T17:11:53;7.10;;;5.18;;
70313;SDS011;57725;47.526;18.986;2022-12-07T17:14:18;9.23;;;5.95;;
70313;SDS011;57725;47.526;18.986;2022-12-07T17:17:02;6.65;;;5.10;;
70313;SDS011;57725;47.526;18.986;2022-12-07T17:19:29;7.90;;;5.30;;
70313;SDS011;57725;47.526;18.986;2022-12-07T17:21:54;8.25;;;5.13;;
70313;SDS011;57725;47.526;18.986;2022-12-07T17:24:19;8.70;;;5.70;;